sensor_id;sensor_type;location;lat;lon;timestamp;pressure;altitude;pressure_sealevel;temperature;humidity
36598;BME280;22607;49.550;11.940;2023-07-20T00:02:24;96530.94;;;20.20;79.64
36598;BME280;22607;49.550;11.940;2023-07-20T00:04:51;96528.84;;;19.93;84.68
36598;BME280;22607;49.550;11.940;2023-07-20T00:07:18;96546.44;;;20.06;85.20
36598;BME280;22607;49.550;11.940;2023-07-20T00:09:44;96548.59;;;20.09;83.49
36598;BME280;22607;49.550;11.940;2023-07-20T00:12:11;96538.34;;;20.01;83.42
36598;BME280;22607;49.550;11.940;2023-07-20T00:14:37;96546.59;;;20.16;83.16
36598;BME280;22607;49.550;11.940;2023-07-20T00:17:04;96538.84;;;20.15;84.38
36598;BME280;22607;49.550;11.940;2023-07-20T00:19:31;96537.56;;;20.17;84.54
36598;BME280;22607;49.550;11.940;2023-07-20T00:21:58;96533.94;;;19.94;88.70
36598;BME280;22607;49.550;11.940;2023-07-20T00:24:26;96527.56;;;19.96;88.63
36598;BME280;22607;49.550;11.940;2023-07-20T00:26:53;96527.22;;;19.92;88.35
36598;BME280;22607;49.550;11.940;2023-07-20T00:29:20;96537.38;;;19.78;88.99
36598;BME280;22607;49.550;11.940;2023-07-20T00:31:47;96538.34;;;20.01;87.88
36598;BME280;22607;49.550;11.940;2023-07-20T00:34:17;96541.28;;;19.87;87.81
36598;BME280;22607;49.550;11.940;2023-07-20T00:36:43;96534.41;;;19.91;89.20
36598;BME280;22607;49.550;11.940;2023-07-20T00:39:10;96532.44;;;19.99;90.27
36598;BME280;22607;49.550;11.940;2023-07-20T00:41:36;96531.56;;;19.81;92.80
36598;BME280;22607;49.550;11.940;2023-07-20T00:44:04;96532.44;;;19.70;94.84
36598;BME280;22607;49.550;11.940;2023-07-20T00:46:31;96532.63;;;19.80;90.71
36598;BME280;22607;49.550;11.940;2023-07-20T00:48:59;96520.22;;;19.57;95.48
36598;BME280;22607;49.550;11.940;2023-07-20T00:51:27;96536.31;;;19.62;93.07
36598;BME280;22607;49.550;11.940;2023-07-20T00:53:54;96540.53;;;19.75;90.65
36598;BME280;22607;49.550;11.940;2023-07-20T00:56:21;96543.28;;;19.51;96.05
36598;BME280;22607;49.550;11.940;2023-07-20T00:58:48;96542.91;;;19.59;93.95
36598;BME280;22607;49.550;11.940;2023-07-20T01:01:16;96542.78;;;19.54;93.85
36598;BME280;22607;49.550;11.940;2023-07-20T01:03:42;96543.56;;;19.66;94.80
36598;BME280;22607;49.550;11.940;2023-07-20T01:14:21;96525.63;;;19.21;98.63
36598;BME280;22607;49.550;11.940;2023-07-20T01:16:49;96521.00;;;19.28;97.76
36598;BME280;22607;49.550;11.940;2023-07-20T01:19:18;96530.94;;;19.33;96.77
36598;BME280;22607;49.550;11.940;2023-07-20T01:25:00;96538.34;;;19.31;100.00
36598;BME280;22607;49.550;11.940;2023-07-20T01:28:04;96537.19;;;19.38;100.00
36598;BME280;22607;49.550;11.940;2023-07-20T01:33:41;96529.50;;;19.42;97.59
36598;BME280;22607;49.550;11.940;2023-07-20T01:36:10;96528.00;;;19.46;96.51
36598;BME280;22607;49.550;11.940;2023-07-20T01:38:37;96526.53;;;19.38;97.87
36598;BME280;22607;49.550;11.940;2023-07-20T01:41:05;96526.69;;;19.20;100.00
36598;BME280;22607;49.550;11.940;2023-07-20T01:43:31;96525.28;;;19.29;100.00
36598;BME280;22607;49.550;11.940;2023-07-20T01:45:58;96534.69;;;19.20;100.00
36598;BME280;22607;49.550;11.940;2023-07-20T01:48:24;96523.78;;;19.21;99.24
36598;BME280;22607;49.550;11.940;2023-07-20T01:50:51;96536.88;;;19.23;98.67
36598;BME280;22607;49.550;11.940;2023-07-20T01:53:18;96549.25;;;19.29;99.53
36598;BME280;22607;49.550;11.940;2023-07-20T01:55:44;96552.38;;;19.14;100.00
36598;BME280;22607;49.550;11.940;2023-07-20T01:58:10;96550.31;;;19.16;100.00
36598;BME280;22607;49.550;11.940;2023-07-20T02:00:37;96552.66;;;19.12;100.00
36598;BME280;22607;49.550;11.940;2023-07-20T02:03:05;96551.81;;;19.00;100.00
36598;BME280;22607;49.550;11.940;2023-07-20T02:05:31;96554.25;;;18.89;100.00
36598;BME280;22607;49.550;11.940;2023-07-20T02:07:59;96554.81;;;18.92;100.00
36598;BME280;22607;49.550;11.940;2023-07-20T02:10:26;96555.28;;;18.88;100.00
36598;BME280;22607;49.550;11.940;2023-07-20T02:12:52;96556.69;;;18.91;100.00
36598;BME280;22607;49.550;11.940;2023-07-20T02:15:19;96552.38;;;19.02;100.00
36598;BME280;22607;49.550;11.940;2023-07-20T02:17:46;96553.44;;;18.77;100.00
36598;BME280;22607;49.550;11.940;2023-07-20T02:20:13;96569.41;;;18.77;100.00
36598;BME280;22607;49.550;11.940;2023-07-20T02:22:40;96566.41;;;18.85;100.00
36598;BME280;22607;49.550;11.940;2023-07-20T02:25:07;96551.34;;;18.79;100.00
36598;BME280;22607;49.550;11.940;2023-07-20T02:27:34;96563.41;;;18.94;100.00
36598;BME280;22607;49.550;11.940;2023-07-20T02:30:01;96545.13;;;18.85;100.00
36598;BME280;22607;49.550;11.940;2023-07-20T02:32:28;96563.63;;;18.92;100.00
36598;BME280;22607;49.550;11.940;2023-07-20T02:34:55;96554.72;;;18.74;100.00
36598;BME280;22607;49.550;11.940;2023-07-20T02:37:21;96551.34;;;18.79;100.00
36598;BME280;22607;49.550;11.940;2023-07-20T02:39:48;96554.81;;;18.80;100.00
36598;BME280;22607;49.550;11.940;2023-07-20T02:42:15;96553.00;;;18.80;100.00
36598;BME280;22607;49.550;11.940;2023-07-20T02:44:41;96549.06;;;18.83;100.00
36598;BME280;22607;49.550;11.940;2023-07-20T02:47:08;96547.19;;;18.83;100.00
36598;BME280;22607;49.550;11.940;2023-07-20T02:49:35;96550.22;;;18.75;100.00
36598;BME280;22607;49.550;11.940;2023-07-20T02:52:01;96564.31;;;18.63;100.00
36598;BME280;22607;49.550;11.940;2023-07-20T02:54:29;96567.19;;;18.62;100.00
36598;BME280;22607;49.550;11.940;2023-07-20T02:56:56;96563.97;;;18.60;100.00
36598;BME280;22607;49.550;11.940;2023-07-20T02:59:24;96559.91;;;18.57;100.00
36598;BME280;22607;49.550;11.940;2023-07-20T03:01:50;96565.47;;;18.68;100.00
36598;BME280;22607;49.550;11.940;2023-07-20T03:04:17;96566.41;;;18.73;100.00
36598;BME280;22607;49.550;11.940;2023-07-20T03:06:43;96575.19;;;18.74;100.00
36598;BME280;22607;49.550;11.940;2023-07-20T03:09:10;96577.72;;;18.69;100.00
36598;BME280;22607;49.550;11.940;2023-07-20T03:11:37;96568.34;;;18.54;100.00
36598;BME280;22607;49.550;11.940;2023-07-20T03:14:04;96565.25;;;18.57;100.00
36598;BME280;22607;49.550;11.940;2023-07-20T03:16:31;96554.94;;;18.61;100.00
36598;BME280;22607;49.550;11.940;2023-07-20T03:18:59;96566.75;;;18.65;100.00
36598;BME280;22607;49.550;11.940;2023-07-20T03:21:29;96568.47;;;18.59;100.00
36598;BME280;22607;49.550;11.940;2023-07-20T03:23:57;96575.75;;;18.52;100.00
36598;BME280;22607;49.550;11.940;2023-07-20T03:26:24;96585.00;;;18.49;100.00
36598;BME280;22607;49.550;11.940;2023-07-20T03:28:52;96582.69;;;18.53;100.00
36598;BME280;22607;49.550;11.940;2023-07-20T03:31:18;96589.84;;;18.53;100.00
36598;BME280;22607;49.550;11.940;2023-07-20T03:33:45;96590.16;;;18.32;100.00
36598;BME280;22607;49.550;11.940;2023-07-20T03:36:11;96581.84;;;18.41;100.00
36598;BME280;22607;49.550;11.940;2023-07-20T03:38:39;96581.72;;;18.35;100.00
36598;BME280;22607;49.550;11.940;2023-07-20T03:41:05;96589.94;;;18.46;100.00
36598;BME280;22607;49.550;11.940;2023-07-20T03:43:32;96578.16;;;18.42;100.00
36598;BME280;22607;49.550;11.940;2023-07-20T03:45:58;96580.13;;;18.46;100.00
36598;BME280;22607;49.550;11.940;2023-07-20T03:48:25;96585.66;;;18.33;100.00
36598;BME280;22607;49.550;11.940;2023-07-20T03:50:53;96594.69;;;18.44;100.00
36598;BME280;22607;49.550;11.940;2023-07-20T03:53:20;96589.25;;;18.39;100.00
36598;BME280;22607;49.550;11.940;2023-07-20T03:55:50;96573.50;;;18.25;100.00
36598;BME280;22607;49.550;11.940;2023-07-20T03:58:18;96591.91;;;18.27;100.00
36598;BME280;22607;49.550;11.940;2023-07-20T04:00:46;96596.19;;;18.40;100.00
36598;BME280;22607;49.550;11.940;2023-07-20T04:03:14;96585.00;;;18.38;100.00
36598;BME280;22607;49.550;11.940;2023-07-20T04:05:41;96591.22;;;18.43;100.00
36598;BME280;22607;49.550;11.940;2023-07-20T04:08:09;96605.91;;;18.46;100.00
36598;BME280;22607;49.550;11.940;2023-07-20T04:10:35;96607.28;;;18.36;100.00
36598;BME280;22607;49.550;11.940;2023-07-20T04:13:02;96610.72;;;18.25;100.00
36598;BME280;22607;49.550;11.940;2023-07-20T04:15:29;96611.78;;;18.36;100.00
36598;BME280;22607;49.550;11.940;2023-07-20T04:17:56;96602.44;;;18.33;100.00
36598;BME280;22607;49.550;11.940;2023-07-20T04:20:23;96613.06;;;18.33;100.00
36598;BME280;22607;49.550;11.940;2023-07-20T04:22:50;96612.97;;;18.40;100.00
36598;BME280;22607;49.550;11.940;2023-07-20T04:25:18;96603.22;;;18.34;100.00
36598;BME280;22607;49.550;11.940;2023-07-20T04:27:45;96604.03;;;18.34;100.00
36598;BME280;22607;49.550;11.940;2023-07-20T04:30:12;96613.16;;;18.27;100.00
36598;BME280;22607;49.550;11.940;2023-07-20T04:32:39;96609.09;;;18.24;100.00
36598;BME280;22607;49.550;11.940;2023-07-20T04:35:25;96614.13;;;18.14;100.00
36598;BME280;22607;49.550;11.940;2023-07-20T04:38:03;96624.22;;;18.23;100.00
36598;BME280;22607;49.550;11.940;2023-07-20T04:40:30;96627.41;;;18.44;100.00
36598;BME280;22607;49.550;11.940;2023-07-20T04:42:56;96619.19;;;18.46;100.00
36598;BME280;22607;49.550;11.940;2023-07-20T04:45:23;96627.91;;;18.53;100.00
36598;BME280;22607;49.550;11.940;2023-07-20T04:47:50;96634.38;;;18.57;100.00
36598;BME280;22607;49.550;11.940;2023-07-20T04:50:17;96632.38;;;18.53;100.00
36598;BME280;22607;49.550;11.940;2023-07-20T04:52:44;96630.22;;;18.61;100.00
36598;BME280;22607;49.550;11.940;2023-07-20T04:55:12;96635.91;;;18.89;100.00
36598;BME280;22607;49.550;11.940;2023-07-20T04:57:39;96624.22;;;18.78;100.00
36598;BME280;22607;49.550;11.940;2023-07-20T05:00:06;96643.91;;;18.89;100.00
36598;BME280;22607;49.550;11.940;2023-07-20T05:02:33;96639.72;;;18.81;100.00
36598;BME280;22607;49.550;11.940;2023-07-20T05:05:00;96652.56;;;18.72;100.00
36598;BME280;22607;49.550;11.940;2023-07-20T05:07:27;96649.38;;;19.06;100.00
36598;BME280;22607;49.550;11.940;2023-07-20T05:09:54;96646.31;;;19.50;100.00
36598;BME280;22607;49.550;11.940;2023-07-20T05:12:20;96645.31;;;19.27;100.00
36598;BME280;22607;49.550;11.940;2023-07-20T05:14:48;96640.41;;;20.01;100.00
36598;BME280;22607;49.550;11.940;2023-07-20T05:17:14;96641.13;;;19.97;100.00
36598;BME280;22607;49.550;11.940;2023-07-20T05:19:42;96643.75;;;20.72;100.00
36598;BME280;22607;49.550;11.940;2023-07-20T05:22:13;96641.97;;;20.43;100.00
36598;BME280;22607;49.550;11.940;2023-07-20T05:24:40;96646.75;;;20.12;100.00
36598;BME280;22607;49.550;11.940;2023-07-20T05:27:07;96647.72;;;20.06;100.00
36598;BME280;22607;49.550;11.940;2023-07-20T05:29:34;96642.09;;;20.19;100.00
36598;BME280;22607;49.550;11.940;2023-07-20T05:32:00;96645.94;;;20.41;100.00
36598;BME280;22607;49.550;11.940;2023-07-20T05:34:27;96636.50;;;20.50;99.53
36598;BME280;22607;49.550;11.940;2023-07-20T05:36:55;96624.66;;;21.32;91.45
36598;BME280;22607;49.550;11.940;2023-07-20T05:39:21;96635.38;;;20.80;91.28
36598;BME280;22607;49.550;11.940;2023-07-20T05:41:48;96642.47;;;21.88;82.42
36598;BME280;22607;49.550;11.940;2023-07-20T05:44:14;96642.16;;;21.22;85.24
36598;BME280;22607;49.550;11.940;2023-07-20T05:46:41;96643.59;;;20.79;87.05
36598;BME280;22607;49.550;11.940;2023-07-20T05:49:23;96640.50;;;21.61;73.59
36598;BME280;22607;49.550;11.940;2023-07-20T05:51:50;96644.56;;;21.86;69.33
36598;BME280;22607;49.550;11.940;2023-07-20T05:54:16;96623.69;;;22.38;66.53
36598;BME280;22607;49.550;11.940;2023-07-20T05:56:43;96643.53;;;23.07;63.04
36598;BME280;22607;49.550;11.940;2023-07-20T05:59:09;96649.78;;;23.18;61.17
36598;BME280;22607;49.550;11.940;2023-07-20T06:01:36;96653.13;;;23.36;59.70
36598;BME280;22607;49.550;11.940;2023-07-20T06:04:03;96660.00;;;23.75;57.72
36598;BME280;22607;49.550;11.940;2023-07-20T06:06:30;96652.47;;;23.67;57.12
36598;BME280;22607;49.550;11.940;2023-07-20T06:08:57;96643.56;;;23.13;57.79
36598;BME280;22607;49.550;11.940;2023-07-20T06:11:23;96651.16;;;23.80;56.96
36598;BME280;22607;49.550;11.940;2023-07-20T06:13:50;96656.66;;;24.11;55.78
36598;BME280;22607;49.550;11.940;2023-07-20T06:16:16;96659.56;;;23.99;55.65
36598;BME280;22607;49.550;11.940;2023-07-20T06:18:43;96659.72;;;23.77;54.53
36598;BME280;22607;49.550;11.940;2023-07-20T06:21:11;96658.97;;;23.86;54.21
36598;BME280;22607;49.550;11.940;2023-07-20T06:23:38;96656.25;;;23.71;54.60
36598;BME280;22607;49.550;11.940;2023-07-20T06:26:08;96659.56;;;23.99;53.94
36598;BME280;22607;49.550;11.940;2023-07-20T06:28:35;96655.28;;;23.98;53.97
36598;BME280;22607;49.550;11.940;2023-07-20T06:31:03;96650.94;;;23.86;53.99
36598;BME280;22607;49.550;11.940;2023-07-20T06:33:30;96658.63;;;25.20;51.35
36598;BME280;22607;49.550;11.940;2023-07-20T06:35:57;96648.06;;;25.60;50.02
36598;BME280;22607;49.550;11.940;2023-07-20T06:38:24;96647.00;;;25.40;49.22
36598;BME280;22607;49.550;11.940;2023-07-20T06:40:54;96651.59;;;25.39;49.20
36598;BME280;22607;49.550;11.940;2023-07-20T06:43:20;96655.97;;;24.94;50.30
36598;BME280;22607;49.550;11.940;2023-07-20T06:45:53;96661.34;;;24.94;51.37
36598;BME280;22607;49.550;11.940;2023-07-20T06:48:21;96657.56;;;24.89;51.16
36598;BME280;22607;49.550;11.940;2023-07-20T06:50:48;96655.94;;;24.52;51.61
36598;BME280;22607;49.550;11.940;2023-07-20T06:53:14;96664.78;;;24.47;52.30
36598;BME280;22607;49.550;11.940;2023-07-20T06:55:44;96663.75;;;23.74;53.75
36598;BME280;22607;49.550;11.940;2023-07-20T06:58:11;96675.41;;;23.42;54.81
36598;BME280;22607;49.550;11.940;2023-07-20T07:00:38;96657.41;;;24.01;52.56
36598;BME280;22607;49.550;11.940;2023-07-20T07:03:04;96656.75;;;24.84;51.31
36598;BME280;22607;49.550;11.940;2023-07-20T07:05:31;96648.13;;;24.56;51.95
36598;BME280;22607;49.550;11.940;2023-07-20T07:08:00;96652.16;;;24.32;52.48
36598;BME280;22607;49.550;11.940;2023-07-20T07:10:27;96658.91;;;24.61;51.11
36598;BME280;22607;49.550;11.940;2023-07-20T07:12:53;96665.56;;;24.43;50.81
36598;BME280;22607;49.550;11.940;2023-07-20T07:15:21;96649.50;;;24.74;48.46
36598;BME280;22607;49.550;11.940;2023-07-20T07:17:48;96657.81;;;24.57;47.33
36598;BME280;22607;49.550;11.940;2023-07-20T07:20:14;96669.22;;;24.05;48.95
36598;BME280;22607;49.550;11.940;2023-07-20T07:22:44;96653.28;;;24.83;47.04
36598;BME280;22607;49.550;11.940;2023-07-20T07:25:12;96659.72;;;25.03;46.78
36598;BME280;22607;49.550;11.940;2023-07-20T07:27:39;96658.44;;;25.87;46.60
36598;BME280;22607;49.550;11.940;2023-07-20T07:30:06;96650.59;;;24.73;47.50
36598;BME280;22607;49.550;11.940;2023-07-20T07:32:32;96666.16;;;23.76;49.57
36598;BME280;22607;49.550;11.940;2023-07-20T07:34:59;96658.56;;;23.57;50.58
36598;BME280;22607;49.550;11.940;2023-07-20T07:37:26;96654.31;;;24.56;48.22
36598;BME280;22607;49.550;11.940;2023-07-20T07:39:53;96649.47;;;25.31;45.16
36598;BME280;22607;49.550;11.940;2023-07-20T07:42:20;96659.13;;;25.42;45.01
36598;BME280;22607;49.550;11.940;2023-07-20T07:44:50;96640.19;;;26.34;42.68
36598;BME280;22607;49.550;11.940;2023-07-20T07:47:16;96642.31;;;26.72;42.44
36598;BME280;22607;49.550;11.940;2023-07-20T07:49:43;96646.81;;;25.15;43.84
36598;BME280;22607;49.550;11.940;2023-07-20T07:52:12;96644.09;;;24.37;45.01
36598;BME280;22607;49.550;11.940;2023-07-20T07:54:40;96657.53;;;24.37;44.90
36598;BME280;22607;49.550;11.940;2023-07-20T07:57:07;96651.31;;;25.46;44.18
36598;BME280;22607;49.550;11.940;2023-07-20T07:59:33;96655.97;;;24.99;44.84
36598;BME280;22607;49.550;11.940;2023-07-20T08:02:04;96655.94;;;24.62;45.12
36598;BME280;22607;49.550;11.940;2023-07-20T08:04:32;96654.56;;;24.23;45.45
36598;BME280;22607;49.550;11.940;2023-07-20T08:06:59;96652.47;;;24.98;44.49
36598;BME280;22607;49.550;11.940;2023-07-20T08:09:26;96663.19;;;25.24;43.63
36598;BME280;22607;49.550;11.940;2023-07-20T08:11:52;96675.06;;;23.92;45.67
36598;BME280;22607;49.550;11.940;2023-07-20T08:14:19;96666.66;;;24.62;44.22
36598;BME280;22607;49.550;11.940;2023-07-20T08:16:45;96660.91;;;23.96;44.79
36598;BME280;22607;49.550;11.940;2023-07-20T08:19:13;96664.94;;;24.04;43.96
36598;BME280;22607;49.550;11.940;2023-07-20T08:21:40;96669.34;;;24.68;43.21
36598;BME280;22607;49.550;11.940;2023-07-20T08:24:07;96667.78;;;24.98;43.20
36598;BME280;22607;49.550;11.940;2023-07-20T08:26:34;96669.78;;;24.07;43.30
36598;BME280;22607;49.550;11.940;2023-07-20T08:29:00;96666.41;;;25.21;42.96
36598;BME280;22607;49.550;11.940;2023-07-20T08:31:27;96659.00;;;25.79;41.75
36598;BME280;22607;49.550;11.940;2023-07-20T08:33:54;96652.13;;;26.58;40.49
36598;BME280;22607;49.550;11.940;2023-07-20T08:36:23;96661.38;;;25.91;40.09
36598;BME280;22607;49.550;11.940;2023-07-20T08:38:50;96658.63;;;24.99;41.60
36598;BME280;22607;49.550;11.940;2023-07-20T08:41:18;96673.59;;;25.47;41.39
36598;BME280;22607;49.550;11.940;2023-07-20T08:43:46;96666.56;;;26.32;38.89
36598;BME280;22607;49.550;11.940;2023-07-20T08:46:13;96656.31;;;26.74;38.46
36598;BME280;22607;49.550;11.940;2023-07-20T08:48:42;96658.19;;;26.74;38.42
36598;BME280;22607;49.550;11.940;2023-07-20T08:51:10;96659.09;;;25.58;40.66
36598;BME280;22607;49.550;11.940;2023-07-20T08:53:37;96662.09;;;25.36;40.76
36598;BME280;22607;49.550;11.940;2023-07-20T08:56:04;96661.34;;;25.96;39.72
36598;BME280;22607;49.550;11.940;2023-07-20T08:58:31;96668.44;;;26.37;39.81
36598;BME280;22607;49.550;11.940;2023-07-20T09:01:00;96660.41;;;26.32;39.27
36598;BME280;22607;49.550;11.940;2023-07-20T09:03:28;96656.91;;;25.60;39.90
36598;BME280;22607;49.550;11.940;2023-07-20T09:05:54;96674.69;;;25.56;40.76
36598;BME280;22607;49.550;11.940;2023-07-20T09:08:21;96664.88;;;25.91;39.92
36598;BME280;22607;49.550;11.940;2023-07-20T09:10:48;96665.28;;;26.19;39.46
36598;BME280;22607;49.550;11.940;2023-07-20T09:13:15;96672.84;;;25.25;39.98
36598;BME280;22607;49.550;11.940;2023-07-20T09:15:46;96680.31;;;25.44;39.61
36598;BME280;22607;49.550;11.940;2023-07-20T09:18:32;96671.16;;;26.21;38.48
36598;BME280;22607;49.550;11.940;2023-07-20T09:21:01;96662.31;;;25.60;38.80
36598;BME280;22607;49.550;11.940;2023-07-20T09:23:36;96660.13;;;26.68;38.00
36598;BME280;22607;49.550;11.940;2023-07-20T09:26:11;96661.09;;;26.83;37.52
36598;BME280;22607;49.550;11.940;2023-07-20T09:28:49;96653.06;;;27.37;35.90
36598;BME280;22607;49.550;11.940;2023-07-20T09:31:18;96660.34;;;27.12;35.44
36598;BME280;22607;49.550;11.940;2023-07-20T09:33:46;96659.72;;;26.00;37.57
36598;BME280;22607;49.550;11.940;2023-07-20T09:36:15;96661.09;;;27.42;36.75
36598;BME280;22607;49.550;11.940;2023-07-20T09:39:03;96660.09;;;26.39;38.36
36598;BME280;22607;49.550;11.940;2023-07-20T09:41:39;96659.88;;;25.48;39.08
36598;BME280;22607;49.550;11.940;2023-07-20T09:44:15;96675.22;;;25.48;38.94
36598;BME280;22607;49.550;11.940;2023-07-20T09:46:48;96675.53;;;25.20;40.08
36598;BME280;22607;49.550;11.940;2023-07-20T09:49:18;96665.63;;;26.53;39.10
36598;BME280;22607;49.550;11.940;2023-07-20T09:51:48;96663.16;;;26.96;36.70
36598;BME280;22607;49.550;11.940;2023-07-20T09:54:15;96659.03;;;27.34;35.58
36598;BME280;22607;49.550;11.940;2023-07-20T09:56:43;96667.63;;;27.65;35.88
36598;BME280;22607;49.550;11.940;2023-07-20T09:59:10;96659.88;;;26.19;38.29
36598;BME280;22607;49.550;11.940;2023-07-20T10:01:38;96672.09;;;26.01;38.47
36598;BME280;22607;49.550;11.940;2023-07-20T10:04:08;96662.91;;;26.58;37.59
36598;BME280;22607;49.550;11.940;2023-07-20T10:06:39;96657.22;;;27.54;35.43
36598;BME280;22607;49.550;11.940;2023-07-20T10:09:07;96649.50;;;27.17;36.20
36598;BME280;22607;49.550;11.940;2023-07-20T10:11:35;96653.69;;;27.29;36.42
36598;BME280;22607;49.550;11.940;2023-07-20T10:14:04;96660.56;;;27.16;36.00
36598;BME280;22607;49.550;11.940;2023-07-20T10:16:42;96651.84;;;27.97;34.64
36598;BME280;22607;49.550;11.940;2023-07-20T10:19:36;96645.94;;;27.95;35.71
36598;BME280;22607;49.550;11.940;2023-07-20T10:22:19;96635.75;;;28.11;33.19
36598;BME280;22607;49.550;11.940;2023-07-20T10:24:51;96642.59;;;28.23;33.71
36598;BME280;22607;49.550;11.940;2023-07-20T10:27:20;96633.03;;;27.92;34.00
36598;BME280;22607;49.550;11.940;2023-07-20T10:29:47;96648.00;;;26.71;34.82
36598;BME280;22607;49.550;11.940;2023-07-20T10:32:15;96655.09;;;26.11;36.39
36598;BME280;22607;49.550;11.940;2023-07-20T10:34:42;96647.75;;;26.22;35.82
36598;BME280;22607;49.550;11.940;2023-07-20T10:37:08;96658.81;;;25.44;35.85
36598;BME280;22607;49.550;11.940;2023-07-20T10:39:35;96654.53;;;25.38;37.45
36598;BME280;22607;49.550;11.940;2023-07-20T10:42:02;96658.59;;;25.30;38.26
36598;BME280;22607;49.550;11.940;2023-07-20T10:44:30;96651.66;;;25.95;37.39
36598;BME280;22607;49.550;11.940;2023-07-20T10:47:01;96654.69;;;25.83;37.58
36598;BME280;22607;49.550;11.940;2023-07-20T10:49:32;96648.25;;;26.74;36.47
36598;BME280;22607;49.550;11.940;2023-07-20T10:52:00;96647.91;;;26.81;35.01
36598;BME280;22607;49.550;11.940;2023-07-20T10:57:22;96644.22;;;27.56;33.62
36598;BME280;22607;49.550;11.940;2023-07-20T10:59:49;96627.97;;;27.42;33.01
36598;BME280;22607;49.550;11.940;2023-07-20T11:02:18;96626.78;;;27.23;32.73
36598;BME280;22607;49.550;11.940;2023-07-20T11:04:46;96620.72;;;27.86;32.61
36598;BME280;22607;49.550;11.940;2023-07-20T11:07:21;96617.31;;;27.26;33.05
36598;BME280;22607;49.550;11.940;2023-07-20T11:10:15;96613.88;;;27.45;33.07
36598;BME280;22607;49.550;11.940;2023-07-20T11:13:16;96602.41;;;27.58;31.86
36598;BME280;22607;49.550;11.940;2023-07-20T11:15:46;96607.16;;;27.42;31.54
36598;BME280;22607;49.550;11.940;2023-07-20T11:18:14;96614.16;;;27.43;31.73
36598;BME280;22607;49.550;11.940;2023-07-20T11:20:41;96607.94;;;27.48;33.09
36598;BME280;22607;49.550;11.940;2023-07-20T11:23:09;96602.53;;;27.91;32.92
36598;BME280;22607;49.550;11.940;2023-07-20T11:25:39;96597.22;;;28.25;32.11
36598;BME280;22607;49.550;11.940;2023-07-20T11:28:08;96602.19;;;28.17;31.25
36598;BME280;22607;49.550;11.940;2023-07-20T11:30:37;96606.16;;;28.25;30.94
36598;BME280;22607;49.550;11.940;2023-07-20T11:33:10;96594.91;;;27.99;31.08
36598;BME280;22607;49.550;11.940;2023-07-20T11:35:44;96602.63;;;28.25;31.28
36598;BME280;22607;49.550;11.940;2023-07-20T11:38:13;96600.38;;;27.94;32.04
36598;BME280;22607;49.550;11.940;2023-07-20T11:40:46;96596.94;;;28.07;30.57
36598;BME280;22607;49.550;11.940;2023-07-20T11:43:13;96590.56;;;28.17;30.73
36598;BME280;22607;49.550;11.940;2023-07-20T11:45:44;96592.28;;;27.94;29.37
36598;BME280;22607;49.550;11.940;2023-07-20T11:48:15;96595.53;;;27.22;31.73
36598;BME280;22607;49.550;11.940;2023-07-20T11:50:42;96583.50;;;27.83;31.00
36598;BME280;22607;49.550;11.940;2023-07-20T11:53:09;96583.66;;;27.72;31.45
36598;BME280;22607;49.550;11.940;2023-07-20T11:55:36;96580.50;;;28.03;30.76
36598;BME280;22607;49.550;11.940;2023-07-20T11:58:04;96579.19;;;28.20;31.13
36598;BME280;22607;49.550;11.940;2023-07-20T12:00:36;96569.59;;;28.14;30.61
36598;BME280;22607;49.550;11.940;2023-07-20T12:03:05;96574.09;;;28.18;30.49
36598;BME280;22607;49.550;11.940;2023-07-20T12:05:40;96583.78;;;27.62;29.45
36598;BME280;22607;49.550;11.940;2023-07-20T12:08:10;96580.28;;;27.61;29.93
36598;BME280;22607;49.550;11.940;2023-07-20T12:10:39;96575.06;;;27.89;30.51
36598;BME280;22607;49.550;11.940;2023-07-20T12:13:10;96565.63;;;27.43;30.47
36598;BME280;22607;49.550;11.940;2023-07-20T12:15:40;96574.41;;;27.78;30.36
36598;BME280;22607;49.550;11.940;2023-07-20T12:18:06;96560.25;;;27.43;29.74
36598;BME280;22607;49.550;11.940;2023-07-20T12:20:35;96564.28;;;27.21;31.11
36598;BME280;22607;49.550;11.940;2023-07-20T12:23:12;96559.03;;;27.55;28.05
36598;BME280;22607;49.550;11.940;2023-07-20T12:25:43;96561.28;;;27.72;26.78
36598;BME280;22607;49.550;11.940;2023-07-20T12:28:14;96545.97;;;27.67;27.25
36598;BME280;22607;49.550;11.940;2023-07-20T12:30:43;96556.06;;;27.56;25.36
36598;BME280;22607;49.550;11.940;2023-07-20T12:33:10;96556.16;;;27.70;26.44
36598;BME280;22607;49.550;11.940;2023-07-20T12:35:38;96543.09;;;27.97;25.57
36598;BME280;22607;49.550;11.940;2023-07-20T12:38:05;96538.00;;;27.76;26.01
36598;BME280;22607;49.550;11.940;2023-07-20T12:40:34;96545.66;;;27.88;26.34
36598;BME280;22607;49.550;11.940;2023-07-20T12:43:00;96541.06;;;28.08;27.73
36598;BME280;22607;49.550;11.940;2023-07-20T12:45:27;96550.25;;;27.68;27.20
36598;BME280;22607;49.550;11.940;2023-07-20T12:47:53;96543.19;;;27.72;26.99
36598;BME280;22607;49.550;11.940;2023-07-20T12:50:20;96544.94;;;28.01;26.53
36598;BME280;22607;49.550;11.940;2023-07-20T12:52:47;96536.38;;;28.13;26.95
36598;BME280;22607;49.550;11.940;2023-07-20T12:55:14;96509.69;;;28.31;26.67
36598;BME280;22607;49.550;11.940;2023-07-20T12:57:41;96537.78;;;28.11;27.89
36598;BME280;22607;49.550;11.940;2023-07-20T13:00:15;96525.75;;;27.84;28.54
36598;BME280;22607;49.550;11.940;2023-07-20T13:02:42;96534.88;;;27.88;28.69
36598;BME280;22607;49.550;11.940;2023-07-20T13:05:10;96538.06;;;28.28;27.86
36598;BME280;22607;49.550;11.940;2023-07-20T13:07:37;96527.81;;;28.45;28.34
36598;BME280;22607;49.550;11.940;2023-07-20T13:10:09;96527.34;;;27.85;27.02
36598;BME280;22607;49.550;11.940;2023-07-20T13:12:37;96537.03;;;28.24;27.80